createdAt,value
2022-10-12T00:00:01.312Z,1.50
2022-10-12T00:02:29.077Z,1.60
2022-10-12T00:04:56.380Z,1.27
2022-10-12T00:07:23.692Z,1.50
2022-10-12T00:09:50.968Z,1.40
2022-10-12T00:12:18.277Z,1.63
2022-10-12T00:14:45.529Z,1.13
2022-10-12T00:17:12.790Z,1.43
2022-10-12T00:19:40.534Z,1.60
2022-10-12T00:22:07.799Z,1.60
2022-10-12T00:24:38.309Z,1.80
2022-10-12T00:27:07.793Z,1.77
2022-10-12T00:29:35.206Z,1.73
2022-10-12T00:32:02.467Z,1.73
2022-10-12T00:34:29.782Z,1.30
2022-10-12T00:36:57.157Z,1.33
2022-10-12T00:39:24.414Z,1.40
2022-10-12T00:41:51.752Z,1.63
2022-10-12T00:44:34.464Z,1.47
2022-10-12T00:47:03.671Z,1.43
2022-10-12T00:49:30.947Z,1.33
2022-10-12T00:52:03.564Z,1.53
2022-10-12T00:54:32.977Z,1.40
2022-10-12T00:57:00.674Z,1.50
2022-10-12T00:59:31.525Z,1.40
2022-10-12T01:01:58.828Z,1.70
2022-10-12T01:04:26.310Z,1.53
2022-10-12T01:06:53.743Z,1.47
2022-10-12T01:09:21.804Z,1.47
2022-10-12T01:11:49.356Z,1.40
2022-10-12T01:14:17.275Z,1.40
2022-10-12T01:16:51.871Z,1.53
2022-10-12T01:19:19.107Z,1.57
2022-10-12T01:21:49.254Z,1.60
2022-10-12T01:24:30.654Z,1.63
2022-10-12T01:27:03.062Z,1.30
2022-10-12T01:29:37.369Z,1.47
2022-10-12T01:32:25.371Z,1.60
2022-10-12T01:34:52.605Z,1.63
2022-10-12T01:37:32.077Z,1.70
2022-10-12T01:40:01.371Z,1.47
2022-10-12T01:42:29.818Z,1.27
2022-10-12T01:45:10.683Z,1.53
2022-10-12T01:47:39.844Z,1.50
2022-10-12T01:50:10.856Z,1.30
2022-10-12T01:52:47.332Z,1.40
2022-10-12T01:55:25.238Z,1.47
2022-10-12T01:57:57.794Z,1.67
2022-10-12T02:00:25.108Z,1.63
2022-10-12T02:02:52.334Z,1.60
2022-10-12T02:05:23.534Z,1.50
2022-10-12T02:07:54.969Z,1.63
2022-10-12T02:10:25.421Z,1.40
2022-10-12T02:12:53.630Z,1.53
2022-10-12T02:15:22.603Z,1.43
2022-10-12T02:17:53.244Z,1.63
2022-10-12T02:20:24.027Z,1.73
2022-10-12T02:23:11.893Z,1.50
2022-10-12T02:25:39.708Z,1.53
2022-10-12T02:28:09.881Z,1.10
2022-10-12T02:30:39.269Z,1.57
2022-10-12T02:33:08.741Z,1.33
2022-10-12T02:35:51.653Z,1.50
2022-10-12T02:38:33.729Z,1.33
2022-10-12T02:41:06.569Z,1.40
2022-10-12T02:43:42.741Z,1.10
2022-10-12T02:46:10.894Z,1.20
2022-10-12T02:48:39.984Z,1.27
2022-10-12T02:51:08.334Z,1.10
2022-10-12T02:53:35.695Z,1.40
2022-10-12T02:56:07.802Z,1.30
2022-10-12T02:58:35.100Z,1.47
2022-10-12T03:01:02.794Z,1.50
2022-10-12T03:03:30.177Z,1.40
2022-10-12T03:05:57.456Z,1.40
2022-10-12T03:08:24.784Z,1.60
2022-10-12T03:10:52.101Z,1.37
2022-10-12T03:13:19.572Z,1.47
2022-10-12T03:15:46.838Z,1.33
2022-10-12T03:18:14.087Z,1.30
2022-10-12T03:20:41.899Z,1.43
2022-10-12T03:23:09.160Z,1.57
2022-10-12T03:25:36.495Z,1.50
2022-10-12T03:28:03.775Z,1.40
2022-10-12T03:30:31.050Z,1.07
2022-10-12T03:32:58.314Z,1.40
2022-10-12T03:35:25.820Z,1.27
2022-10-12T03:37:53.094Z,1.40
2022-10-12T03:40:20.373Z,1.37
2022-10-12T03:42:47.676Z,1.23
2022-10-12T03:45:15.053Z,1.40
2022-10-12T03:47:42.575Z,1.33
2022-10-12T03:50:10.013Z,1.50
2022-10-12T03:52:37.333Z,1.37
2022-10-12T03:55:04.725Z,1.37
2022-10-12T03:57:31.967Z,1.30
2022-10-12T03:59:59.278Z,1.30
2022-10-12T04:02:26.525Z,1.30
2022-10-12T04:04:54.392Z,1.30
2022-10-12T04:07:21.849Z,1.20
2022-10-12T04:09:49.139Z,1.30
2022-10-12T04:12:16.411Z,1.10
2022-10-12T04:14:43.678Z,1.23
2022-10-12T04:17:10.950Z,1.43
2022-10-12T04:19:38.231Z,1.37
2022-10-12T04:22:05.490Z,1.23
2022-10-12T04:24:32.739Z,1.13
2022-10-12T04:27:00.153Z,1.50
2022-10-12T04:29:27.471Z,1.20
2022-10-12T04:31:54.830Z,1.70
2022-10-12T04:34:22.078Z,1.30
2022-10-12T04:36:49.342Z,1.40
2022-10-12T04:39:16.929Z,1.20
2022-10-12T04:41:44.338Z,1.20
2022-10-12T04:44:11.589Z,1.30
2022-10-12T04:46:38.884Z,1.20
2022-10-12T04:49:06.150Z,1.17
2022-10-12T04:51:33.397Z,1.03
2022-10-12T04:54:00.659Z,1.30
2022-10-12T04:56:28.229Z,1.33
2022-10-12T04:58:55.645Z,1.17
2022-10-12T05:01:22.962Z,1.70
2022-10-12T05:03:50.485Z,1.30
2022-10-12T05:06:17.745Z,1.00
2022-10-12T05:08:45.001Z,1.30
2022-10-12T05:11:12.314Z,1.03
2022-10-12T05:13:39.635Z,1.40
2022-10-12T05:16:07.038Z,1.70
2022-10-12T05:18:34.407Z,1.47
2022-10-12T05:21:01.766Z,1.40
2022-10-12T05:23:29.048Z,1.43
2022-10-12T05:25:56.894Z,1.17
2022-10-12T05:28:24.474Z,1.50
2022-10-12T05:30:52.318Z,1.43
2022-10-12T05:33:19.757Z,1.23
2022-10-12T05:35:52.151Z,1.27
2022-10-12T05:38:22.000Z,1.30
2022-10-12T05:40:49.378Z,1.50
2022-10-12T05:43:16.662Z,1.50
2022-10-12T05:45:44.139Z,1.13
2022-10-12T05:48:11.407Z,0.97
2022-10-12T05:50:38.773Z,1.40
2022-10-12T05:53:06.073Z,1.30
2022-10-12T05:55:33.343Z,1.30
2022-10-12T05:58:00.581Z,1.30
2022-10-12T06:00:27.877Z,1.30
2022-10-12T06:02:55.344Z,1.70
2022-10-12T06:05:22.639Z,1.20
2022-10-12T06:07:49.902Z,1.30
2022-10-12T06:10:17.182Z,1.37
2022-10-12T06:12:44.473Z,1.60
2022-10-12T06:15:11.821Z,1.30
2022-10-12T06:17:39.084Z,1.50
2022-10-12T06:20:06.583Z,1.50
2022-10-12T06:22:33.855Z,1.27
2022-10-12T06:25:01.380Z,1.43
2022-10-12T06:27:28.631Z,1.37
2022-10-12T06:29:55.943Z,1.80
2022-10-12T06:32:23.247Z,1.37
2022-10-12T06:34:50.531Z,1.40
2022-10-12T06:37:44.338Z,1.30
2022-10-12T06:40:05.818Z,1.33
2022-10-12T06:42:33.158Z,1.27
2022-10-12T06:45:00.401Z,1.40
2022-10-12T06:47:27.703Z,1.60
2022-10-12T06:49:55.051Z,1.40
2022-10-12T06:52:22.324Z,1.80
2022-10-12T06:54:49.569Z,1.20
2022-10-12T06:57:16.811Z,1.50
2022-10-12T06:59:44.082Z,1.53
2022-10-12T07:02:11.950Z,1.60
2022-10-12T07:04:39.213Z,1.30
2022-10-12T07:07:06.518Z,1.30
2022-10-12T07:09:33.766Z,1.47
2022-10-12T07:12:01.006Z,1.53
2022-10-12T07:14:28.383Z,1.43
2022-10-12T07:16:55.782Z,1.30
2022-10-12T07:19:23.153Z,1.30
2022-10-12T07:21:50.382Z,1.40
2022-10-12T07:24:17.647Z,1.40
2022-10-12T07:26:45.033Z,1.10
2022-10-12T07:29:12.293Z,1.60
2022-10-12T07:31:39.533Z,1.70
2022-10-12T07:34:06.802Z,1.70
2022-10-12T07:36:57.432Z,1.47
2022-10-12T07:39:22.568Z,1.70
2022-10-12T07:41:50.462Z,1.40
2022-10-12T07:44:17.843Z,1.47
2022-10-12T07:46:45.174Z,1.33
2022-10-12T07:49:13.798Z,1.50
2022-10-12T07:51:41.498Z,1.37
2022-10-12T07:54:09.121Z,1.40
2022-10-12T07:56:36.712Z,1.50
2022-10-12T07:59:04.231Z,1.47
2022-10-12T08:01:32.385Z,2.07
2022-10-12T08:04:01.805Z,1.80
2022-10-12T08:06:31.591Z,2.37
2022-10-12T08:08:59.566Z,1.57
2022-10-12T08:11:26.857Z,1.60
2022-10-12T08:13:54.246Z,1.60
2022-10-12T08:16:21.905Z,1.70
2022-10-12T08:18:49.508Z,1.60
2022-10-12T08:21:17.389Z,1.60
2022-10-12T08:23:46.211Z,1.80
2022-10-12T08:26:14.672Z,1.70
2022-10-12T08:28:42.398Z,1.63
2022-10-12T08:31:11.075Z,1.60
2022-10-12T08:33:38.445Z,1.80
2022-10-12T08:36:06.681Z,1.80
2022-10-12T08:38:34.742Z,2.07
2022-10-12T08:41:01.978Z,1.90
2022-10-12T08:43:48.118Z,2.00
2022-10-12T08:46:18.527Z,1.97
2022-10-12T08:48:56.568Z,2.00
2022-10-12T08:51:25.292Z,1.87
2022-10-12T08:54:02.847Z,1.70
2022-10-12T08:56:30.359Z,1.90
2022-10-12T08:58:57.648Z,2.33
2022-10-12T09:01:37.340Z,1.93
2022-10-12T09:04:17.243Z,2.10
2022-10-12T09:06:50.675Z,1.60
2022-10-12T09:09:43.244Z,1.53
2022-10-12T09:12:23.544Z,1.87
2022-10-12T09:14:51.902Z,1.83
2022-10-12T09:17:27.799Z,1.97
2022-10-12T09:20:08.329Z,1.83
2022-10-12T09:22:35.998Z,2.33
2022-10-12T09:25:04.101Z,2.17
2022-10-12T09:27:32.532Z,2.03
2022-10-12T09:30:02.257Z,2.70
2022-10-12T09:32:41.625Z,2.30
2022-10-12T09:35:11.955Z,2.33
2022-10-12T09:37:40.035Z,2.00
2022-10-12T09:40:08.158Z,2.47
2022-10-12T09:42:35.568Z,1.90
2022-10-12T09:45:04.152Z,1.87
2022-10-12T09:47:33.224Z,1.83
2022-10-12T09:50:05.268Z,1.87
2022-10-12T09:52:42.358Z,2.20
2022-10-12T09:55:16.049Z,2.00
2022-10-12T09:57:45.222Z,2.47
2022-10-12T10:00:26.179Z,1.90
2022-10-12T10:02:53.503Z,2.67
2022-10-12T10:05:25.817Z,2.00
2022-10-12T10:07:53.353Z,2.20
2022-10-12T10:10:29.234Z,2.00
2022-10-12T10:12:58.925Z,2.10
2022-10-12T10:15:28.687Z,2.10
2022-10-12T10:18:22.401Z,2.30
2022-10-12T10:20:53.708Z,2.27
2022-10-12T10:23:31.763Z,2.43
2022-10-12T10:26:03.770Z,2.10
2022-10-12T10:28:32.700Z,2.07
2022-10-12T10:31:03.043Z,2.30
2022-10-12T10:33:32.202Z,2.30
2022-10-12T10:36:01.295Z,2.87
2022-10-12T10:38:30.955Z,2.20
2022-10-12T10:40:58.622Z,3.00
2022-10-12T10:43:27.792Z,2.97
2022-10-12T10:45:56.527Z,3.10
2022-10-12T10:48:25.410Z,3.13
2022-10-12T10:50:54.296Z,3.50
2022-10-12T10:53:22.454Z,2.50
2022-10-12T10:55:59.214Z,3.07
2022-10-12T10:58:42.854Z,3.33
2022-10-12T11:01:16.189Z,3.20
2022-10-12T11:03:52.325Z,2.53
2022-10-12T11:06:25.911Z,3.00
2022-10-12T11:08:59.531Z,3.23
2022-10-12T11:11:28.890Z,2.70
2022-10-12T11:14:00.937Z,2.77
2022-10-12T11:16:48.496Z,2.50
2022-10-12T11:19:15.830Z,3.07
2022-10-12T11:21:52.565Z,2.90
2022-10-12T11:24:24.319Z,3.00
2022-10-12T11:26:57.573Z,2.90
2022-10-12T11:29:24.914Z,3.07
2022-10-12T11:31:52.373Z,3.20
2022-10-12T11:34:21.147Z,3.10
2022-10-12T11:37:17.782Z,2.40
2022-10-12T11:39:40.527Z,2.97
2022-10-12T11:42:27.605Z,2.87
2022-10-12T11:44:55.414Z,2.90
2022-10-12T11:47:22.655Z,3.10
2022-10-12T11:49:56.105Z,3.40
2022-10-12T11:52:28.784Z,3.17
2022-10-12T11:55:01.048Z,2.97
2022-10-12T11:57:30.808Z,2.80
2022-10-12T12:00:01.132Z,2.10
2022-10-12T12:02:32.806Z,2.90
2022-10-12T12:05:00.790Z,2.23
2022-10-12T12:07:43.346Z,3.27
2022-10-12T12:10:34.994Z,2.63
2022-10-12T12:13:12.770Z,2.97
2022-10-12T12:15:41.306Z,2.90
2022-10-12T12:18:22.256Z,2.70
2022-10-12T12:20:49.535Z,2.70
2022-10-12T12:23:21.399Z,2.50
2022-10-12T12:25:48.869Z,2.17
2022-10-12T12:28:20.823Z,2.90
2022-10-12T12:30:57.157Z,2.60
2022-10-12T12:33:32.073Z,2.63
2022-10-12T12:36:02.147Z,2.50
2022-10-12T12:38:35.635Z,2.20
2022-10-12T12:41:17.954Z,2.40
2022-10-12T12:43:45.504Z,2.20
2022-10-12T12:46:14.245Z,2.30
2022-10-12T12:48:47.184Z,2.20
2022-10-12T12:51:15.758Z,1.93
2022-10-12T12:53:48.871Z,2.33
2022-10-12T12:56:16.081Z,1.63
2022-10-12T12:59:12.672Z,1.83
2022-10-12T13:01:58.644Z,2.93
2022-10-12T13:04:28.867Z,2.20
2022-10-12T13:07:02.153Z,2.53
2022-10-12T13:09:35.670Z,2.70
2022-10-12T13:12:21.866Z,2.20
2022-10-12T13:14:49.124Z,1.80
2022-10-12T13:17:37.700Z,2.90
2022-10-12T13:20:31.479Z,3.30
2022-10-12T13:23:02.301Z,3.60
2022-10-12T13:25:34.325Z,2.80
2022-10-12T13:28:03.413Z,3.03
2022-10-12T13:30:35.970Z,3.03
2022-10-12T13:33:12.287Z,3.37
2022-10-12T13:35:42.540Z,2.40
2022-10-12T13:38:15.943Z,2.67
2022-10-12T13:40:45.312Z,2.40
2022-10-12T13:43:19.810Z,2.50
2022-10-12T13:45:48.226Z,2.10
2022-10-12T13:48:33.960Z,3.00
2022-10-12T13:51:21.329Z,2.13
2022-10-12T13:53:48.606Z,2.53
2022-10-12T13:56:18.717Z,3.07
2022-10-12T13:58:46.213Z,2.43
2022-10-12T14:01:14.157Z,3.37
2022-10-12T14:03:42.879Z,2.67
2022-10-12T14:06:29.818Z,3.00
2022-10-12T14:08:58.913Z,2.20
2022-10-12T14:11:27.130Z,3.00
2022-10-12T14:13:54.646Z,2.90
2022-10-12T14:16:21.977Z,2.47
2022-10-12T14:18:50.845Z,2.00
2022-10-12T14:21:18.088Z,2.13
2022-10-12T14:23:49.543Z,2.40
2022-10-12T14:26:31.101Z,2.50
2022-10-12T14:28:59.196Z,3.43
2022-10-12T14:31:44.930Z,2.20
2022-10-12T14:34:27.201Z,2.03
2022-10-12T14:37:09.758Z,2.10
2022-10-12T14:39:37.425Z,2.10
2022-10-12T14:42:18.002Z,1.70
2022-10-12T14:44:45.283Z,1.87
2022-10-12T14:47:22.853Z,2.50
2022-10-12T14:49:51.017Z,2.07
2022-10-12T14:52:37.240Z,2.20
2022-10-12T14:55:05.134Z,2.10
2022-10-12T14:57:32.742Z,2.30
2022-10-12T15:00:00.253Z,2.50
2022-10-12T15:02:29.226Z,2.10
2022-10-12T15:04:56.907Z,2.00
2022-10-12T15:07:25.777Z,2.27
2022-10-12T15:09:53.440Z,1.80
2022-10-12T15:12:21.966Z,2.43
2022-10-12T15:14:49.784Z,2.83
2022-10-12T15:17:18.683Z,2.17
2022-10-12T15:19:46.828Z,2.37
2022-10-12T15:22:15.947Z,2.00
2022-10-12T15:24:43.284Z,2.70
2022-10-12T15:27:10.823Z,2.30
2022-10-12T15:29:38.279Z,2.57
2022-10-12T15:32:06.139Z,2.33
2022-10-12T15:34:33.443Z,2.37
2022-10-12T15:37:02.459Z,2.73
2022-10-12T15:39:32.635Z,2.27
2022-10-12T15:42:00.277Z,2.40
2022-10-12T15:44:28.267Z,2.03
2022-10-12T15:46:55.711Z,2.33
2022-10-12T15:49:26.140Z,2.57
2022-10-12T15:51:54.882Z,2.37
2022-10-12T15:54:22.636Z,2.70
2022-10-12T15:56:50.050Z,2.67
2022-10-12T15:59:17.338Z,2.37
2022-10-12T16:01:44.896Z,2.40
2022-10-12T16:04:14.696Z,2.10
2022-10-12T16:06:42.015Z,2.03
2022-10-12T16:09:09.378Z,2.20
2022-10-12T16:11:36.994Z,1.87
2022-10-12T16:14:04.387Z,2.20
2022-10-12T16:16:32.281Z,1.90
2022-10-12T16:18:59.622Z,1.50
2022-10-12T16:21:26.923Z,1.80
2022-10-12T16:23:54.208Z,1.67
2022-10-12T16:26:21.645Z,1.53
2022-10-12T16:28:48.983Z,1.70
2022-10-12T16:31:17.860Z,2.10
2022-10-12T16:33:45.547Z,1.83
2022-10-12T16:36:13.961Z,1.40
2022-10-12T16:38:41.746Z,1.80
2022-10-12T16:41:10.032Z,1.73
2022-10-12T16:43:37.393Z,1.47
2022-10-12T16:46:04.945Z,2.00
2022-10-12T16:48:32.588Z,1.53
2022-10-12T16:50:59.933Z,1.87
2022-10-12T16:53:27.306Z,2.00
2022-10-12T16:55:54.797Z,1.80
2022-10-12T16:58:22.077Z,1.80
2022-10-12T17:00:49.491Z,1.60
2022-10-12T17:03:16.799Z,1.37
2022-10-12T17:05:44.206Z,1.60
2022-10-12T17:08:15.345Z,1.70
2022-10-12T17:10:44.129Z,1.53
2022-10-12T17:13:13.377Z,1.67
2022-10-12T17:15:41.463Z,1.80
2022-10-12T17:18:09.177Z,1.80
2022-10-12T17:20:37.042Z,1.50
2022-10-12T17:23:04.395Z,1.60
2022-10-12T17:25:31.790Z,1.77
2022-10-12T17:27:59.050Z,1.73
2022-10-12T17:30:26.344Z,1.60
2022-10-12T17:32:53.622Z,1.40
2022-10-12T17:35:20.958Z,1.63
2022-10-12T17:37:48.202Z,1.30
2022-10-12T17:40:16.183Z,1.60
2022-10-12T17:42:43.443Z,1.80
2022-10-12T17:45:11.000Z,1.87
2022-10-12T17:47:39.267Z,2.30
2022-10-12T17:50:06.975Z,1.87
2022-10-12T17:52:37.641Z,1.50
2022-10-12T17:55:05.031Z,1.80
2022-10-12T17:57:32.299Z,2.00
2022-10-12T17:59:59.872Z,2.07
2022-10-12T18:02:27.194Z,2.17
2022-10-12T18:04:54.581Z,2.07
2022-10-12T18:07:21.906Z,2.40
2022-10-12T18:09:49.260Z,2.10
2022-10-12T18:12:17.102Z,1.77
2022-10-12T18:14:44.638Z,2.20
2022-10-12T18:17:12.003Z,2.03
2022-10-12T18:19:39.302Z,2.20
2022-10-12T18:22:06.574Z,2.30
2022-10-12T18:24:33.856Z,1.53
2022-10-12T18:27:01.192Z,1.80
2022-10-12T18:29:28.490Z,1.83
2022-10-12T18:31:55.945Z,1.70
2022-10-12T18:34:23.265Z,1.60
2022-10-12T18:36:51.947Z,2.00
2022-10-12T18:39:19.805Z,2.27
2022-10-12T18:41:49.972Z,1.73
2022-10-12T18:44:17.698Z,2.37
2022-10-12T18:46:45.217Z,1.67
2022-10-12T18:49:12.636Z,2.10
2022-10-12T18:51:41.288Z,2.00
2022-10-12T18:54:08.890Z,1.80
2022-10-12T18:56:37.088Z,1.53
2022-10-12T18:59:04.734Z,1.80
2022-10-12T19:01:33.337Z,2.00
2022-10-12T19:04:01.494Z,1.73
2022-10-12T19:06:30.390Z,2.00
2022-10-12T19:08:58.039Z,1.73
2022-10-12T19:11:26.307Z,2.20
2022-10-12T19:13:54.709Z,2.27
2022-10-12T19:16:22.387Z,2.30
2022-10-12T19:18:49.950Z,2.40
2022-10-12T19:21:18.498Z,2.37
2022-10-12T19:23:46.123Z,2.17
2022-10-12T19:26:18.264Z,2.03
2022-10-12T19:28:46.626Z,2.33
2022-10-12T19:31:15.945Z,1.97
2022-10-12T19:33:43.611Z,2.30
2022-10-12T19:36:11.671Z,2.50
2022-10-12T19:38:38.967Z,2.13
2022-10-12T19:41:06.581Z,2.57
2022-10-12T19:43:34.758Z,2.97
2022-10-12T19:46:06.994Z,2.60
2022-10-12T19:48:35.042Z,3.17
2022-10-12T19:51:04.009Z,2.63
2022-10-12T19:53:31.333Z,3.30
2022-10-12T19:56:02.418Z,2.57
2022-10-12T19:58:29.706Z,2.73
2022-10-12T20:01:11.837Z,2.50
2022-10-12T20:03:41.983Z,2.20
2022-10-12T20:06:11.496Z,2.30
2022-10-12T20:08:39.668Z,2.50
2022-10-12T20:11:07.405Z,2.40
2022-10-12T20:13:34.965Z,2.87
2022-10-12T20:16:02.774Z,3.43
2022-10-12T20:18:30.495Z,2.30
2022-10-12T20:20:58.344Z,2.40
2022-10-12T20:23:25.599Z,2.47
2022-10-12T20:25:53.839Z,1.90
2022-10-12T20:28:22.183Z,2.30
2022-10-12T20:30:49.999Z,2.30
2022-10-12T20:33:17.379Z,3.33
2022-10-12T20:35:48.646Z,2.07
2022-10-12T20:38:16.832Z,2.40
2022-10-12T20:40:45.854Z,3.00
2022-10-12T20:43:13.938Z,3.13
2022-10-12T20:45:41.426Z,2.20
2022-10-12T20:48:09.166Z,2.50
2022-10-12T20:50:38.083Z,2.23
2022-10-12T20:53:05.342Z,2.63
2022-10-12T20:55:32.649Z,2.87
2022-10-12T20:58:00.015Z,2.90
2022-10-12T21:00:27.443Z,2.77
2022-10-12T21:02:54.703Z,2.63
2022-10-12T21:05:21.971Z,2.27
2022-10-12T21:07:49.304Z,3.07
2022-10-12T21:10:16.550Z,2.60
2022-10-12T21:12:43.812Z,2.63
2022-10-12T21:15:11.371Z,2.87
2022-10-12T21:17:38.767Z,2.10
2022-10-12T21:20:06.274Z,2.60
2022-10-12T21:22:33.563Z,2.53
2022-10-12T21:25:00.984Z,2.27
2022-10-12T21:27:28.271Z,2.50
2022-10-12T21:29:55.561Z,2.03
2022-10-12T21:32:22.814Z,2.67
2022-10-12T21:34:50.536Z,2.67
2022-10-12T21:37:17.798Z,2.53
2022-10-12T21:39:45.067Z,2.17
2022-10-12T21:42:12.369Z,2.77
2022-10-12T21:44:39.629Z,2.70
2022-10-12T21:47:06.927Z,2.70
2022-10-12T21:49:34.195Z,2.50
2022-10-12T21:52:01.456Z,2.60
2022-10-12T21:54:28.774Z,2.10
2022-10-12T21:56:56.010Z,2.67
2022-10-12T21:59:23.689Z,2.13
2022-10-12T22:01:50.954Z,2.50
2022-10-12T22:04:18.223Z,2.80
2022-10-12T22:06:45.585Z,2.43
2022-10-12T22:09:16.448Z,2.00
2022-10-12T22:11:44.176Z,2.97
2022-10-12T22:14:13.458Z,2.80
2022-10-12T22:16:40.878Z,2.33
2022-10-12T22:19:09.166Z,2.93
2022-10-12T22:21:36.810Z,2.53
2022-10-12T22:24:04.577Z,2.53
2022-10-12T22:26:32.271Z,2.77
2022-10-12T22:29:01.959Z,2.17
2022-10-12T22:31:29.241Z,2.70
2022-10-12T22:33:57.018Z,3.00
2022-10-12T22:36:24.295Z,2.13
2022-10-12T22:38:51.570Z,2.17
2022-10-12T22:41:20.168Z,2.40
2022-10-12T22:43:48.569Z,2.20
2022-10-12T22:46:15.866Z,2.70
2022-10-12T22:48:43.181Z,2.80
2022-10-12T22:51:11.348Z,1.90
2022-10-12T22:53:39.347Z,2.67
2022-10-12T22:56:08.019Z,2.60
2022-10-12T22:58:35.753Z,2.20
2022-10-12T23:01:08.178Z,3.00
2022-10-12T23:03:35.967Z,2.57
2022-10-12T23:06:11.423Z,2.27
2022-10-12T23:08:38.815Z,2.97
2022-10-12T23:11:07.429Z,2.77
2022-10-12T23:13:36.186Z,2.07
2022-10-12T23:16:07.327Z,1.80
2022-10-12T23:18:35.188Z,2.20
2022-10-12T23:21:09.722Z,2.00
2022-10-12T23:23:37.849Z,2.03
2022-10-12T23:26:07.032Z,2.30
2022-10-12T23:28:34.652Z,2.83
2022-10-12T23:31:05.829Z,2.40
2022-10-12T23:33:33.572Z,2.47
2022-10-12T23:36:02.245Z,2.33
2022-10-12T23:38:30.508Z,1.97
2022-10-12T23:40:58.022Z,2.00
2022-10-12T23:43:26.759Z,2.80
2022-10-12T23:45:55.980Z,2.40
2022-10-12T23:48:23.607Z,2.33
2022-10-12T23:50:51.974Z,2.30
2022-10-12T23:53:19.942Z,1.80
2022-10-12T23:55:47.337Z,2.17
2022-10-12T23:58:14.630Z,2.03
